Time;durP1;ratioP1;P1;durP2;ratioP2;P2;SDS_P1;SDS_P2;PMS_P1;PMS_P2;Temp;Humidity;BMP_temperature;BMP_pressure;BME280_temperature;BME280_humidity;BME280_pressure;Samples;Min_cycle;Max_cycle;Signal;HPM_P1;HPM_P2
2021/01/08 00:00:01;;;;;;;18.23;10.55;;;3.70;99.90;;;;;;3620569;39;20268;-74
2021/01/08 00:02:28;;;;;;;19.42;11.85;;;3.70;99.90;;;;;;3620362;39;20259;-74
2021/01/08 00:04:54;;;;;;;18.58;11.45;;;3.80;99.90;;;;;;3619940;39;20264;-74
2021/01/08 00:07:20;;;;;;;17.52;11.52;;;3.90;99.90;;;;;;3620536;39;20252;-73
2021/01/08 00:09:47;;;;;;;23.63;13.30;;;3.90;99.90;;;;;;3622635;39;20255;-73
2021/01/08 00:12:14;;;;;;;19.20;11.77;;;4.00;99.90;;;;;;3625275;39;20297;-73
2021/01/08 00:14:41;;;;;;;18.10;11.30;;;4.00;99.90;;;;;;3621906;39;20292;-74
2021/01/08 00:17:07;;;;;;;19.83;12.68;;;4.00;99.90;;;;;;3621664;39;20288;-74
2021/01/08 00:19:34;;;;;;;17.92;10.32;;;4.00;99.90;;;;;;3621784;39;20235;-73
2021/01/08 00:22:00;;;;;;;16.58;9.98;;;3.90;99.90;;;;;;3624049;39;20259;-73
2021/01/08 00:24:27;;;;;;;18.48;11.45;;;3.70;99.90;;;;;;3628414;31;20259;-73
2021/01/08 00:26:54;;;;;;;20.00;12.02;;;3.60;99.90;;;;;;3623591;39;20283;-73
2021/01/08 00:29:22;;;;;;;16.45;10.73;;;3.70;99.90;;;;;;3622982;39;20264;-73
2021/01/08 00:31:48;;;;;;;18.02;9.88;;;3.70;99.90;;;;;;3621604;39;20748;-73
2021/01/08 00:34:16;;;;;;;16.75;9.48;;;3.80;99.90;;;;;;3621530;39;20264;-73
2021/01/08 00:36:49;;;;;;;16.65;10.48;;;3.80;99.90;;;;;;3621960;39;20674;-73
2021/01/08 00:39:16;;;;;;;16.63;11.07;;;3.80;99.90;;;;;;3623036;39;20275;-73
2021/01/08 00:41:43;;;;;;;19.45;10.93;;;3.90;99.90;;;;;;3628457;31;20372;-74
2021/01/08 00:44:10;;;;;;;15.93;10.90;;;4.00;99.90;;;;;;3624422;39;20654;-74
2021/01/08 00:46:38;;;;;;;15.23;9.70;;;4.00;99.90;;;;;;3623880;39;20263;-74
2021/01/08 00:49:06;;;;;;;17.77;11.05;;;4.00;99.90;;;;;;3621482;39;20248;-73
2021/01/08 00:51:34;;;;;;;15.80;9.68;;;4.10;99.90;;;;;;3621602;39;20264;-73
2021/01/08 00:54:00;;;;;;;14.55;9.77;;;4.10;99.90;;;;;;3621101;39;20252;-73
2021/01/08 00:56:27;;;;;;;13.93;9.65;;;4.10;99.90;;;;;;3622582;39;20367;-73
2021/01/08 00:58:54;;;;;;;16.98;10.27;;;4.00;99.90;;;;;;3621199;39;20292;-73
2021/01/08 01:01:20;;;;;;;15.55;9.63;;;4.00;99.90;;;;;;3621048;39;20348;-73
2021/01/08 01:03:48;;;;;;;16.92;10.45;;;3.90;99.90;;;;;;3623778;39;20259;-73
2021/01/08 01:06:22;;;;;;;17.27;10.15;;;4.10;99.90;;;;;;3624544;39;20224;-73
2021/01/08 01:08:48;;;;;;;17.05;10.45;;;4.00;99.90;;;;;;3620837;39;20297;-73
2021/01/08 01:11:15;;;;;;;15.80;10.77;;;4.00;99.90;;;;;;3624480;39;20273;-73
2021/01/08 01:13:42;;;;;;;15.35;10.60;;;3.90;99.90;;;;;;3621432;39;20267;-73
2021/01/08 01:16:08;;;;;;;19.30;11.25;;;3.90;99.90;;;;;;3621640;39;20268;-73
2021/01/08 01:18:35;;;;;;;18.17;11.07;;;3.90;99.90;;;;;;3621478;39;20244;-73
2021/01/08 01:21:02;;;;;;;20.70;12.32;;;4.00;99.90;;;;;;3636436;31;20587;-73
2021/01/08 01:23:29;;;;;;;18.85;11.50;;;3.90;99.90;;;;;;3620866;39;20272;-73
2021/01/08 01:25:55;;;;;;;19.10;11.68;;;4.00;99.90;;;;;;3621026;39;20260;-73
2021/01/08 01:28:22;;;;;;;19.73;11.02;;;4.00;99.90;;;;;;3623484;39;20263;-73
2021/01/08 01:30:48;;;;;;;19.58;11.18;;;4.00;99.90;;;;;;3625454;39;20364;-73
2021/01/08 01:33:15;;;;;;;17.73;11.18;;;3.90;99.90;;;;;;3636079;31;20256;-73
2021/01/08 01:35:41;;;;;;;19.38;11.10;;;3.90;99.90;;;;;;3620829;39;20328;-73
2021/01/08 01:38:09;;;;;;;18.35;10.57;;;3.80;99.90;;;;;;3620966;39;20272;-73
2021/01/08 01:40:35;;;;;;;23.83;13.18;;;3.90;99.90;;;;;;3635106;39;20248;-73
2021/01/08 01:43:02;;;;;;;22.92;11.85;;;3.90;99.90;;;;;;3624497;39;20264;-73
2021/01/08 01:45:28;;;;;;;19.73;11.88;;;4.00;99.90;;;;;;3623993;39;20277;-73
2021/01/08 01:47:55;;;;;;;21.60;12.43;;;4.00;99.90;;;;;;3620824;39;20244;-73
2021/01/08 01:50:22;;;;;;;20.52;11.73;;;4.10;99.90;;;;;;3634342;31;20282;-72
2021/01/08 01:52:49;;;;;;;20.20;12.38;;;4.20;99.90;;;;;;3620417;39;20963;-73
2021/01/08 01:55:16;;;;;;;19.58;11.82;;;4.20;99.90;;;;;;3621380;39;20251;-72
2021/01/08 01:57:43;;;;;;;23.70;13.23;;;4.30;99.90;;;;;;3620570;39;20361;-73
2021/01/08 02:00:10;;;;;;;19.83;12.38;;;4.30;99.90;;;;;;3620650;39;20256;-73
2021/01/08 02:02:41;;;;;;;19.95;12.07;;;4.40;99.90;;;;;;3622190;31;20252;-73
2021/01/08 02:05:10;;;;;;;21.05;12.23;;;4.30;99.90;;;;;;3623917;39;20397;-73
2021/01/08 02:07:45;;;;;;;20.83;12.65;;;4.30;99.90;;;;;;3623820;39;20354;-74
2021/01/08 02:10:12;;;;;;;18.55;10.90;;;4.30;99.90;;;;;;3631861;32;20251;-74
2021/01/08 02:12:43;;;;;;;21.25;12.45;;;4.40;99.90;;;;;;3622084;39;20582;-73
2021/01/08 02:15:10;;;;;;;19.35;11.82;;;4.40;99.90;;;;;;3624551;39;20321;-74
2021/01/08 02:17:36;;;;;;;19.85;11.85;;;4.30;99.90;;;;;;3620518;39;20359;-74
2021/01/08 02:20:06;;;;;;;21.70;11.43;;;4.40;99.90;;;;;;3620686;39;20317;-73
2021/01/08 02:22:38;;;;;;;16.25;10.23;;;4.40;99.90;;;;;;3620782;39;20267;-73
2021/01/08 02:25:13;;;;;;;17.45;11.45;;;4.50;99.90;;;;;;3620643;39;20256;-73
2021/01/08 02:27:43;;;;;;;17.83;10.98;;;4.50;99.90;;;;;;3624902;39;20276;-73
2021/01/08 02:30:11;;;;;;;19.52;11.63;;;4.50;99.90;;;;;;3621696;39;20348;-73
2021/01/08 02:32:38;;;;;;;18.63;12.15;;;4.50;99.90;;;;;;3622568;39;20341;-73
2021/01/08 02:35:06;;;;;;;17.60;10.95;;;4.50;99.90;;;;;;3620148;39;20282;-73
2021/01/08 02:37:41;;;;;;;16.27;10.18;;;4.50;99.90;;;;;;3621241;39;20268;-73
2021/01/08 02:40:11;;;;;;;13.90;9.82;;;4.40;99.90;;;;;;3622542;39;20244;-73
2021/01/08 02:42:39;;;;;;;13.65;9.65;;;4.40;99.90;;;;;;3620805;39;20271;-73
2021/01/08 02:45:06;;;;;;;15.05;10.48;;;4.50;99.90;;;;;;3622465;39;20650;-73
2021/01/08 02:47:33;;;;;;;15.23;9.95;;;4.50;99.90;;;;;;3634282;31;20267;-73
2021/01/08 02:49:59;;;;;;;11.95;9.57;;;4.50;99.90;;;;;;3620402;39;20306;-73
2021/01/08 02:52:28;;;;;;;12.60;9.50;;;4.50;99.90;;;;;;3622158;32;20363;-73
2021/01/08 02:54:57;;;;;;;11.38;9.52;;;4.50;99.90;;;;;;3620076;39;20248;-73
2021/01/08 02:57:26;;;;;;;13.93;10.82;;;4.60;99.90;;;;;;3623812;39;20279;-73
2021/01/08 02:59:55;;;;;;;11.65;9.52;;;4.60;99.90;;;;;;3619950;39;20361;-73
2021/01/08 03:02:22;;;;;;;13.32;10.82;;;4.60;99.90;;;;;;3626453;32;20264;-73
2021/01/08 03:04:49;;;;;;;13.68;10.27;;;4.60;99.90;;;;;;3626474;39;20297;-73
2021/01/08 03:07:20;;;;;;;11.32;8.23;;;4.50;99.90;;;;;;3622792;39;20320;-73
2021/01/08 03:09:46;;;;;;;12.18;9.15;;;4.40;99.90;;;;;;3621722;39;20294;-73
2021/01/08 03:12:15;;;;;;;11.43;7.72;;;4.30;99.90;;;;;;3619898;39;20694;-73
2021/01/08 03:14:44;;;;;;;10.93;8.50;;;4.20;99.90;;;;;;3635562;31;20278;-73
2021/01/08 03:17:10;;;;;;;11.50;8.55;;;4.30;99.90;;;;;;3623485;39;20252;-73
2021/01/08 03:19:37;;;;;;;13.48;8.85;;;4.20;99.90;;;;;;3624276;39;20376;-73
2021/01/08 03:22:03;;;;;;;12.88;8.25;;;4.20;99.90;;;;;;3623919;39;20272;-73
2021/01/08 03:24:30;;;;;;;10.93;8.73;;;4.20;99.90;;;;;;3623576;39;20653;-74
2021/01/08 03:26:56;;;;;;;12.65;9.30;;;4.20;99.90;;;;;;3620345;39;20291;-73
2021/01/08 03:29:23;;;;;;;12.40;9.07;;;4.20;99.90;;;;;;3620136;39;20279;-73
2021/01/08 03:31:50;;;;;;;14.00;9.18;;;4.20;99.90;;;;;;3620307;39;20240;-73
2021/01/08 03:34:17;;;;;;;13.18;9.60;;;4.10;99.90;;;;;;3619800;39;20339;-73
2021/01/08 03:36:43;;;;;;;13.10;8.00;;;4.10;99.90;;;;;;3620558;39;20355;-73
2021/01/08 03:39:10;;;;;;;12.50;9.13;;;4.20;99.90;;;;;;3620343;39;20266;-73
2021/01/08 03:41:38;;;;;;;11.95;8.30;;;4.20;99.90;;;;;;3620431;39;20297;-73
2021/01/08 03:44:04;;;;;;;9.05;7.50;;;4.30;99.90;;;;;;3619817;39;20322;-73
2021/01/08 03:46:35;;;;;;;11.63;8.63;;;4.30;99.90;;;;;;3621163;39;20252;-73
2021/01/08 03:49:03;;;;;;;12.98;9.00;;;4.40;99.90;;;;;;3624607;31;20263;-73
2021/01/08 03:51:29;;;;;;;11.50;7.95;;;4.40;99.90;;;;;;3623427;39;20379;-73
2021/01/08 03:53:56;;;;;;;12.23;8.77;;;4.30;99.90;;;;;;3623757;39;20266;-74
2021/01/08 03:56:22;;;;;;;12.70;9.05;;;4.30;99.90;;;;;;3622376;39;20256;-73
2021/01/08 03:58:49;;;;;;;13.57;9.25;;;4.30;99.90;;;;;;3623353;39;20880;-74
2021/01/08 04:01:15;;;;;;;13.93;8.50;;;4.30;99.90;;;;;;3623856;39;20267;-73
2021/01/08 04:03:42;;;;;;;12.38;8.75;;;4.30;99.90;;;;;;3627686;39;20256;-72
2021/01/08 04:06:10;;;;;;;13.25;9.35;;;4.30;99.90;;;;;;3621814;39;20252;-73
2021/01/08 04:08:36;;;;;;;11.63;8.82;;;4.40;99.90;;;;;;3621809;39;20372;-73
2021/01/08 04:11:03;;;;;;;12.48;8.98;;;4.40;99.90;;;;;;3621879;39;20719;-73
2021/01/08 04:13:29;;;;;;;16.75;10.32;;;4.40;99.90;;;;;;3622258;39;20359;-73
2021/01/08 04:15:55;;;;;;;13.02;8.90;;;4.30;99.90;;;;;;3623423;39;20260;-73
2021/01/08 04:18:22;;;;;;;13.65;9.65;;;4.40;99.90;;;;;;3622605;39;20240;-73
2021/01/08 04:20:49;;;;;;;12.40;9.02;;;4.40;99.90;;;;;;3623311;39;20289;-73
2021/01/08 04:23:16;;;;;;;12.32;8.40;;;4.40;99.90;;;;;;3621561;39;20347;-73
2021/01/08 04:25:42;;;;;;;14.05;8.63;;;4.50;99.90;;;;;;3621938;39;20255;-73
2021/01/08 04:28:09;;;;;;;14.50;9.25;;;4.50;99.90;;;;;;3621906;39;20256;-73
2021/01/08 04:30:36;;;;;;;11.15;7.97;;;4.40;99.90;;;;;;3621719;39;20274;-73
2021/01/08 04:33:02;;;;;;;10.07;7.97;;;4.50;99.90;;;;;;3622379;39;20803;-73
2021/01/08 04:35:29;;;;;;;9.85;7.75;;;4.40;99.90;;;;;;3621485;39;20347;-73
2021/01/08 04:37:55;;;;;;;11.73;8.25;;;4.40;99.90;;;;;;3622442;39;20271;-73
2021/01/08 04:40:22;;;;;;;10.93;7.10;;;4.40;99.90;;;;;;3622576;39;20263;-73
2021/01/08 04:42:49;;;;;;;12.63;7.88;;;4.40;99.90;;;;;;3621578;39;20267;-73
2021/01/08 04:45:16;;;;;;;10.95;7.90;;;4.40;99.90;;;;;;3628178;32;20251;-73
2021/01/08 04:47:45;;;;;;;11.55;8.10;;;4.30;99.90;;;;;;3621553;39;20271;-73
2021/01/08 04:50:12;;;;;;;11.23;7.93;;;4.30;99.90;;;;;;3621147;39;20355;-73
2021/01/08 04:52:39;;;;;;;11.50;8.32;;;4.20;99.90;;;;;;3621103;39;20283;-73
2021/01/08 04:55:07;;;;;;;12.40;8.45;;;4.10;99.90;;;;;;3636751;32;20336;-74
2021/01/08 04:57:37;;;;;;;12.63;7.40;;;4.10;99.90;;;;;;3621766;39;20260;-74
2021/01/08 05:00:05;;;;;;;12.13;8.20;;;4.10;99.90;;;;;;3620270;39;20263;-73
2021/01/08 05:02:33;;;;;;;16.88;9.05;;;4.10;99.90;;;;;;3620810;39;20779;-73
2021/01/08 05:05:00;;;;;;;16.55;9.30;;;4.10;99.90;;;;;;3621291;39;20306;-73
2021/01/08 05:07:26;;;;;;;12.68;8.55;;;4.10;99.90;;;;;;3622898;39;20244;-73
2021/01/08 05:09:53;;;;;;;11.82;8.60;;;4.10;99.90;;;;;;3621268;39;20284;-73
2021/01/08 05:12:19;;;;;;;12.30;8.38;;;4.10;99.90;;;;;;3626316;39;20255;-72
2021/01/08 05:14:47;;;;;;;11.95;8.10;;;4.10;99.90;;;;;;3621520;39;20330;-73
2021/01/08 05:17:13;;;;;;;14.88;9.75;;;4.10;99.90;;;;;;3621075;39;20287;-73
2021/01/08 05:19:47;;;;;;;14.57;9.63;;;4.20;99.90;;;;;;3621473;39;20358;-73
2021/01/08 05:22:15;;;;;;;17.67;10.25;;;4.20;99.90;;;;;;3621144;39;20263;-73
2021/01/08 05:24:41;;;;;;;14.00;9.40;;;4.30;99.90;;;;;;3620684;39;20259;-73
2021/01/08 05:27:12;;;;;;;16.02;9.95;;;4.40;99.90;;;;;;3626736;31;20411;-72
2021/01/08 05:29:38;;;;;;;14.13;9.00;;;4.50;99.90;;;;;;3622548;39;20248;-73
2021/01/08 05:32:06;;;;;;;15.43;9.82;;;4.60;99.90;;;;;;3620812;39;20289;-73
2021/01/08 05:34:34;;;;;;;13.20;9.43;;;4.70;99.90;;;;;;3621365;39;20363;-73
2021/01/08 05:37:00;;;;;;;15.10;10.02;;;4.70;99.90;;;;;;3621114;39;20248;-72
2021/01/08 05:39:27;;;;;;;14.13;9.77;;;4.80;99.90;;;;;;3621017;39;20256;-73
2021/01/08 05:41:54;;;;;;;13.50;9.65;;;4.80;99.90;;;;;;3624011;39;20291;-73
2021/01/08 05:44:21;;;;;;;14.07;9.75;;;4.80;99.90;;;;;;3623701;39;20281;-73
2021/01/08 05:46:48;;;;;;;14.65;9.63;;;4.80;99.90;;;;;;3621041;39;20248;-73
2021/01/08 05:49:16;;;;;;;16.17;10.00;;;4.90;99.90;;;;;;3624409;39;20332;-72
2021/01/08 05:51:45;;;;;;;13.80;9.55;;;4.90;99.90;;;;;;3622956;39;20267;-73
2021/01/08 05:54:11;;;;;;;16.23;10.40;;;4.90;99.90;;;;;;3621398;39;20351;-73
2021/01/08 05:56:38;;;;;;;20.65;13.35;;;4.90;99.90;;;;;;3621830;39;20284;-73
2021/01/08 05:59:06;;;;;;;17.40;11.07;;;4.90;99.90;;;;;;3628303;39;20768;-73
2021/01/08 06:01:33;;;;;;;16.95;10.27;;;4.90;99.90;;;;;;3623078;39;20247;-73
2021/01/08 06:04:01;;;;;;;19.42;10.32;;;4.80;99.90;;;;;;3620968;39;20272;-73
2021/01/08 06:06:38;;;;;;;14.75;10.52;;;4.80;99.90;;;;;;3620457;39;20267;-73
2021/01/08 06:09:05;;;;;;;13.13;8.63;;;4.80;99.90;;;;;;3620350;39;20263;-73
2021/01/08 06:11:35;;;;;;;19.27;10.05;;;4.80;99.90;;;;;;3620777;39;20314;-73
2021/01/08 06:14:03;;;;;;;17.10;10.18;;;4.80;99.90;;;;;;3620676;39;20264;-73
2021/01/08 06:16:36;;;;;;;19.42;10.60;;;4.70;99.90;;;;;;3624905;39;20260;-73
2021/01/08 06:19:03;;;;;;;14.68;8.88;;;4.70;99.90;;;;;;3621272;39;20248;-73
2021/01/08 06:21:38;;;;;;;22.95;10.98;;;4.70;99.90;;;;;;3620769;39;20626;-73
2021/01/08 06:24:10;;;;;;;15.98;9.52;;;4.70;99.90;;;;;;3622501;39;20286;-73
2021/01/08 06:26:38;;;;;;;15.68;8.32;;;4.80;99.90;;;;;;3621190;39;20251;-73
2021/01/08 06:29:17;;;;;;;14.43;9.10;;;4.80;99.90;;;;;;3620384;39;20354;-73
2021/01/08 06:31:48;;;;;;;18.60;9.20;;;4.80;99.90;;;;;;3623391;39;20270;-73
2021/01/08 06:34:22;;;;;;;16.58;8.00;;;4.90;99.90;;;;;;3620643;39;20272;-73
2021/01/08 06:37:04;;;;;;;15.07;9.52;;;4.90;99.90;;;;;;3621460;39;20272;-73
2021/01/08 06:39:35;;;;;;;14.25;8.65;;;4.90;99.90;;;;;;3622637;39;20252;-73
2021/01/08 06:42:02;;;;;;;15.75;8.88;;;4.90;99.90;;;;;;3620722;39;20286;-73
2021/01/08 06:44:30;;;;;;;12.65;8.00;;;4.90;99.90;;;;;;3623728;39;20236;-73
2021/01/08 06:46:58;;;;;;;13.07;8.05;;;4.90;99.90;;;;;;3620423;39;20287;-73
2021/01/08 06:49:25;;;;;;;14.98;6.93;;;4.90;99.90;;;;;;3622946;39;20645;-73
2021/01/08 06:51:52;;;;;;;10.38;7.13;;;4.90;99.90;;;;;;3622102;39;20244;-73
2021/01/08 06:54:19;;;;;;;8.90;5.85;;;4.90;99.90;;;;;;3620314;39;20240;-73
2021/01/08 06:56:46;;;;;;;9.75;5.55;;;4.90;99.90;;;;;;3625040;39;20271;-73
2021/01/08 06:59:16;;;;;;;11.63;6.47;;;4.80;99.90;;;;;;3619016;39;20816;-74
2021/01/08 07:01:53;;;;;;;11.30;6.30;;;4.90;99.90;;;;;;3620975;39;20382;-73
2021/01/08 07:04:21;;;;;;;10.93;6.35;;;4.80;99.90;;;;;;3634661;31;20572;-74
2021/01/08 07:06:48;;;;;;;9.57;5.53;;;4.90;99.90;;;;;;3620150;39;20244;-74
2021/01/08 07:09:16;;;;;;;7.07;4.80;;;4.90;99.90;;;;;;3620323;39;20263;-73
2021/01/08 07:11:43;;;;;;;7.63;5.18;;;4.90;99.90;;;;;;3620149;39;20383;-74
2021/01/08 07:14:14;;;;;;;8.40;5.10;;;4.90;99.90;;;;;;3620541;39;20259;-74
2021/01/08 07:16:45;;;;;;;11.30;5.35;;;4.90;99.90;;;;;;3622999;39;20256;-74
2021/01/08 07:19:14;;;;;;;15.10;5.22;;;4.80;99.90;;;;;;3620392;39;20256;-73
2021/01/08 07:21:45;;;;;;;8.35;5.78;;;4.70;99.90;;;;;;3622359;39;20232;-73
2021/01/08 07:24:13;;;;;;;10.02;6.15;;;4.80;99.90;;;;;;3627608;39;20698;-74
2021/01/08 07:26:41;;;;;;;7.75;5.53;;;4.80;99.90;;;;;;3625670;39;20413;-73
2021/01/08 07:29:08;;;;;;;9.23;6.15;;;4.80;99.90;;;;;;3622496;39;20562;-73
2021/01/08 07:31:36;;;;;;;10.50;7.53;;;4.90;99.90;;;;;;3623864;39;20260;-73
2021/01/08 07:34:04;;;;;;;11.02;7.30;;;4.90;99.90;;;;;;3623800;39;20260;-73
2021/01/08 07:36:32;;;;;;;10.00;6.90;;;5.00;99.90;;;;;;3621407;39;20109;-73
2021/01/08 07:39:00;;;;;;;10.00;6.60;;;5.00;99.90;;;;;;3622324;39;20248;-74
2021/01/08 07:41:34;;;;;;;12.73;7.50;;;4.90;99.90;;;;;;3622466;39;20280;-74
2021/01/08 07:44:03;;;;;;;13.63;8.15;;;5.00;99.90;;;;;;3622876;39;20403;-75
2021/01/08 07:46:31;;;;;;;10.75;7.45;;;5.00;99.90;;;;;;3622233;39;20260;-75
2021/01/08 07:48:58;;;;;;;9.63;6.53;;;5.10;99.90;;;;;;3622253;39;20256;-75
2021/01/08 07:51:45;;;;;;;11.48;8.18;;;5.00;99.90;;;;;;3622337;39;20277;-79
2021/01/08 07:54:11;;;;;;;16.05;8.27;;;5.00;99.90;;;;;;3624797;39;20270;-74
2021/01/08 07:57:04;;;;;;;10.48;7.80;;;5.00;99.90;;;;;;3623753;39;20251;-74
2021/01/08 07:59:32;;;;;;;11.57;8.40;;;5.00;99.90;;;;;;3625508;39;20340;-74
2021/01/08 08:01:59;;;;;;;12.95;7.78;;;5.00;99.90;;;;;;3626319;39;20255;-73
2021/01/08 08:04:28;;;;;;;12.90;7.85;;;5.10;99.90;;;;;;3621436;39;20280;-73
2021/01/08 08:06:56;;;;;;;11.93;7.60;;;5.10;99.90;;;;;;3621971;39;20255;-74
2021/01/08 08:09:24;;;;;;;11.32;6.47;;;5.10;99.90;;;;;;3620855;39;20675;-74
2021/01/08 08:11:50;;;;;;;14.18;6.53;;;5.10;99.90;;;;;;3621959;39;20274;-73
2021/01/08 08:14:18;;;;;;;12.00;7.22;;;5.10;99.90;;;;;;3625273;39;20335;-74
2021/01/08 08:16:45;;;;;;;10.38;6.43;;;5.10;99.90;;;;;;3621598;39;20256;-74
2021/01/08 08:19:13;;;;;;;12.38;7.25;;;5.10;99.90;;;;;;3623258;39;20251;-74
2021/01/08 08:21:46;;;;;;;15.25;7.65;;;5.10;99.90;;;;;;3621574;39;20240;-74
2021/01/08 08:24:16;;;;;;;14.90;7.20;;;5.10;99.90;;;;;;3623391;39;20291;-74
2021/01/08 08:26:42;;;;;;;12.60;7.30;;;5.20;99.90;;;;;;3626157;39;20267;-74
2021/01/08 08:29:11;;;;;;;15.68;8.13;;;5.20;99.90;;;;;;3622007;39;20345;-74
2021/01/08 08:31:39;;;;;;;11.68;7.40;;;5.30;99.90;;;;;;3621604;39;20247;-74
2021/01/08 08:34:08;;;;;;;10.70;6.72;;;5.30;99.90;;;;;;3628103;39;20372;-75
2021/01/08 08:36:36;;;;;;;11.95;6.75;;;5.30;99.90;;;;;;3621487;39;20239;-74
2021/01/08 08:39:05;;;;;;;14.68;7.43;;;5.20;99.90;;;;;;3623421;39;20248;-74
2021/01/08 08:41:33;;;;;;;15.25;8.43;;;5.20;99.90;;;;;;3621350;39;20359;-74
2021/01/08 08:44:05;;;;;;;13.30;7.03;;;5.10;99.90;;;;;;3621638;39;20263;-74
2021/01/08 08:46:46;;;;;;;15.23;8.15;;;5.00;99.90;;;;;;3623335;39;20255;-74
2021/01/08 08:49:15;;;;;;;14.88;7.75;;;5.00;99.90;;;;;;3621430;39;20871;-74
2021/01/08 08:51:42;;;;;;;10.15;6.53;;;5.00;99.90;;;;;;3621546;39;20262;-74
2021/01/08 08:54:09;;;;;;;10.23;6.53;;;5.00;99.90;;;;;;3622556;39;20285;-74
2021/01/08 08:56:39;;;;;;;11.43;6.40;;;5.00;99.90;;;;;;3623762;39;20302;-74
2021/01/08 08:59:05;;;;;;;11.77;6.15;;;5.10;99.90;;;;;;3621397;39;20278;-74
2021/01/08 09:01:39;;;;;;;12.48;5.75;;;5.10;99.90;;;;;;3622024;39;20289;-74
2021/01/08 09:04:06;;;;;;;12.00;6.28;;;5.10;99.90;;;;;;3621431;39;20325;-74
2021/01/08 09:06:35;;;;;;;9.52;5.78;;;5.20;99.90;;;;;;3620952;39;20343;-74
2021/01/08 09:09:13;;;;;;;8.77;5.47;;;5.30;99.90;;;;;;3623096;31;20236;-74
2021/01/08 09:11:50;;;;;;;12.32;6.28;;;5.30;99.90;;;;;;3622711;32;20240;-74
2021/01/08 09:14:21;;;;;;;13.98;6.97;;;5.30;99.90;;;;;;3624523;39;20377;-74
2021/01/08 09:16:51;;;;;;;11.23;6.43;;;5.40;99.90;;;;;;3621873;39;20248;-74
2021/01/08 09:19:31;;;;;;;13.95;6.43;;;5.40;99.90;;;;;;3638002;32;20252;-74
2021/01/08 09:21:59;;;;;;;7.18;5.18;;;5.40;99.90;;;;;;3622833;39;20247;-74
2021/01/08 09:24:29;;;;;;;12.85;5.38;;;5.30;99.90;;;;;;3622440;39;20260;-74
2021/01/08 09:26:59;;;;;;;10.05;6.03;;;5.30;99.90;;;;;;3622757;39;20347;-74
2021/01/08 09:29:29;;;;;;;8.88;5.60;;;5.30;99.90;;;;;;3622100;39;20284;-74
2021/01/08 09:31:57;;;;;;;13.18;5.55;;;5.30;99.90;;;;;;3621477;39;20291;-74
2021/01/08 09:34:25;;;;;;;9.50;6.10;;;5.40;99.90;;;;;;3620874;39;20285;-74
2021/01/08 09:36:53;;;;;;;16.10;6.45;;;5.40;99.90;;;;;;3622350;39;20301;-75
2021/01/08 09:39:21;;;;;;;9.52;5.25;;;5.30;99.90;;;;;;3621486;31;20349;-75
2021/01/08 09:41:55;;;;;;;10.13;5.55;;;5.20;99.90;;;;;;3620790;39;20276;-75
2021/01/08 09:44:31;;;;;;;9.95;5.75;;;5.20;99.90;;;;;;3623360;32;20259;-77
2021/01/08 09:46:59;;;;;;;11.25;6.50;;;5.20;99.90;;;;;;3623559;39;20275;-76
2021/01/08 09:49:26;;;;;;;13.27;6.07;;;5.20;99.90;;;;;;3624374;39;20256;-76
2021/01/08 09:52:03;;;;;;;10.98;5.50;;;5.20;99.90;;;;;;3650888;32;20807;-76
2021/01/08 09:54:47;;;;;;;11.75;5.32;;;5.20;99.90;;;;;;3621432;39;20247;-76
2021/01/08 09:57:27;;;;;;;9.75;6.07;;;5.20;99.90;;;;;;3622996;39;20256;-74
2021/01/08 09:59:58;;;;;;;9.30;5.68;;;5.30;99.90;;;;;;3622130;39;20331;-73
2021/01/08 10:02:38;;;;;;;8.25;5.70;;;5.30;99.90;;;;;;3627979;32;20290;-73
2021/01/08 10:05:08;;;;;;;10.13;6.03;;;5.40;99.90;;;;;;3622230;31;22081;-73
2021/01/08 10:07:42;;;;;;;8.40;5.10;;;5.40;99.90;;;;;;3621265;39;20255;-73
2021/01/08 10:10:11;;;;;;;6.78;4.63;;;5.40;99.90;;;;;;3622751;31;20410;-73
2021/01/08 10:12:46;;;;;;;8.15;4.88;;;5.40;99.90;;;;;;3620556;39;20248;-73
2021/01/08 10:15:13;;;;;;;11.85;5.13;;;5.50;99.90;;;;;;3621472;39;20837;-73
2021/01/08 10:17:47;;;;;;;6.80;4.75;;;5.50;99.90;;;;;;3620999;39;21209;-73
2021/01/08 10:20:16;;;;;;;8.98;4.30;;;5.60;99.90;;;;;;3624844;31;20382;-73
2021/01/08 10:22:49;;;;;;;6.38;5.07;;;5.60;99.90;;;;;;3620830;39;20272;-73
2021/01/08 10:25:27;;;;;;;7.40;4.68;;;5.60;99.90;;;;;;3624662;39;20291;-74
2021/01/08 10:27:54;;;;;;;7.30;4.45;;;5.60;99.90;;;;;;3622424;39;20642;-73
2021/01/08 10:30:21;;;;;;;6.97;4.90;;;5.60;99.90;;;;;;3619868;39;20263;-73
2021/01/08 10:32:48;;;;;;;6.03;4.45;;;5.70;99.90;;;;;;3620114;39;20806;-74
2021/01/08 10:35:17;;;;;;;6.55;4.45;;;5.70;99.90;;;;;;3620296;39;20274;-73
2021/01/08 10:37:44;;;;;;;9.80;5.15;;;5.70;99.90;;;;;;3627104;31;20256;-75
2021/01/08 10:40:11;;;;;;;8.13;4.55;;;5.80;99.90;;;;;;3619746;39;20251;-75
2021/01/08 10:42:39;;;;;;;7.57;4.53;;;5.80;99.90;;;;;;3622041;39;20252;-74
2021/01/08 10:45:07;;;;;;;9.88;5.35;;;5.80;99.90;;;;;;3626377;39;20243;-73
2021/01/08 10:47:33;;;;;;;6.38;4.40;;;5.80;99.90;;;;;;3623517;39;20282;-74
2021/01/08 10:50:00;;;;;;;8.80;5.15;;;5.80;99.90;;;;;;3621207;39;20304;-73
2021/01/08 10:52:27;;;;;;;7.80;4.97;;;5.70;99.90;;;;;;3621604;39;20272;-73
2021/01/08 10:54:53;;;;;;;7.75;5.28;;;5.70;99.90;;;;;;3624946;39;20660;-75
2021/01/08 10:57:20;;;;;;;9.55;5.00;;;5.70;99.90;;;;;;3623382;39;20355;-75
2021/01/08 10:59:47;;;;;;;7.90;4.50;;;5.80;99.90;;;;;;3619992;39;20270;-76
2021/01/08 11:24:14;;;;;;;6.13;3.28;;;5.70;99.90;;;;;;3634914;31;20314;-73
2021/01/08 11:26:41;;;;;;;4.60;3.63;;;5.80;99.90;;;;;;3629129;39;20285;-73
2021/01/08 11:29:07;;;;;;;5.03;3.80;;;5.90;99.90;;;;;;3628929;39;20275;-73
2021/01/08 11:31:35;;;;;;;5.30;3.78;;;5.90;99.90;;;;;;3629858;39;20301;-73
2021/01/08 11:34:02;;;;;;;4.53;3.20;;;5.90;99.90;;;;;;3630715;39;20274;-73
2021/01/08 11:36:31;;;;;;;4.15;3.40;;;5.80;99.90;;;;;;3635113;39;20256;-73
2021/01/08 11:38:58;;;;;;;4.95;3.20;;;5.70;99.90;;;;;;3629488;39;20331;-73
2021/01/08 11:41:26;;;;;;;11.02;3.03;;;5.70;99.90;;;;;;3631790;31;20298;-73
2021/01/08 11:43:52;;;;;;;3.92;3.13;;;5.70;99.90;;;;;;3634712;31;20264;-73
2021/01/08 11:46:20;;;;;;;3.00;2.80;;;5.70;99.90;;;;;;3628389;39;20260;-73
2021/01/08 11:48:50;;;;;;;4.63;3.53;;;5.80;99.90;;;;;;3628757;39;20263;-73
2021/01/08 11:51:17;;;;;;;4.30;3.30;;;5.80;99.90;;;;;;3629094;32;20332;-73
2021/01/08 11:53:44;;;;;;;5.75;4.40;;;5.80;99.90;;;;;;3630531;39;20228;-73
2021/01/08 11:56:11;;;;;;;5.18;4.43;;;5.80;99.90;;;;;;3633783;39;20615;-73
2021/01/08 11:58:39;;;;;;;7.05;5.07;;;5.80;99.90;;;;;;3628778;39;20275;-73
2021/01/08 12:01:05;;;;;;;9.57;5.18;;;5.80;99.90;;;;;;3628475;39;20274;-73
2021/01/08 12:03:35;;;;;;;5.57;4.50;;;5.80;99.90;;;;;;3627960;39;20344;-73
2021/01/08 12:06:01;;;;;;;11.68;5.22;;;5.80;99.90;;;;;;3628990;39;20251;-75
2021/01/08 12:08:28;;;;;;;4.90;3.80;;;5.90;99.90;;;;;;3632874;39;20388;-74
2021/01/08 12:10:54;;;;;;;6.20;4.75;;;5.90;99.90;;;;;;3628812;39;20289;-75
2021/01/08 12:13:21;;;;;;;5.13;3.75;;;5.90;99.90;;;;;;3633885;39;20263;-77
2021/01/08 12:15:49;;;;;;;5.80;4.18;;;5.90;99.90;;;;;;3626766;32;20266;-73
2021/01/08 12:18:16;;;;;;;6.20;3.58;;;5.80;99.90;;;;;;3623121;39;20290;-73
2021/01/08 12:20:44;;;;;;;6.63;4.25;;;5.70;99.90;;;;;;3625498;39;20748;-73
2021/01/08 12:23:11;;;;;;;5.75;3.88;;;5.70;99.90;;;;;;3621835;39;20312;-73
2021/01/08 12:25:37;;;;;;;4.45;3.95;;;5.80;99.90;;;;;;3623712;39;20252;-73
2021/01/08 12:28:04;;;;;;;7.13;4.35;;;5.80;99.90;;;;;;3624327;39;20367;-73
2021/01/08 12:30:30;;;;;;;13.68;3.47;;;5.80;99.90;;;;;;3623265;31;20240;-73
2021/01/08 12:32:58;;;;;;;6.20;4.72;;;5.90;99.90;;;;;;3622561;39;20440;-73
2021/01/08 12:35:25;;;;;;;4.85;4.32;;;5.90;99.90;;;;;;3623788;39;20433;-73
2021/01/08 12:37:52;;;;;;;3.97;3.58;;;5.90;99.90;;;;;;3623846;39;20280;-73
2021/01/08 12:40:18;;;;;;;6.40;3.67;;;6.00;99.90;;;;;;3623039;39;20368;-73
2021/01/08 12:42:47;;;;;;;4.22;3.83;;;6.00;99.90;;;;;;3630018;39;20248;-73
2021/01/08 12:45:15;;;;;;;5.60;3.65;;;6.10;99.90;;;;;;3629375;31;20287;-73
2021/01/08 12:47:42;;;;;;;6.40;3.55;;;6.20;99.90;;;;;;3642157;31;20291;-73
2021/01/08 12:50:10;;;;;;;5.93;4.65;;;6.20;99.90;;;;;;3628435;32;20240;-73
2021/01/08 12:52:36;;;;;;;5.75;3.63;;;6.30;99.90;;;;;;3624963;39;20252;-73
2021/01/08 12:55:04;;;;;;;10.85;4.00;;;6.30;99.90;;;;;;3625422;39;20241;-75
2021/01/08 12:57:30;;;;;;;3.88;3.42;;;6.30;99.90;;;;;;3623808;39;20293;-72
2021/01/08 12:59:57;;;;;;;4.65;3.28;;;6.30;99.90;;;;;;3624404;39;20769;-73
2021/01/08 13:02:23;;;;;;;6.22;3.78;;;6.20;99.90;;;;;;3622468;39;20274;-73
2021/01/08 13:04:50;;;;;;;7.20;4.88;;;6.10;99.90;;;;;;3631895;31;20282;-74
2021/01/08 13:07:17;;;;;;;5.18;3.55;;;5.90;99.90;;;;;;3625044;39;20266;-74
2021/01/08 13:09:44;;;;;;;6.13;3.55;;;5.70;99.90;;;;;;3631466;39;20240;-74
2021/01/08 13:12:13;;;;;;;5.10;3.53;;;5.60;99.90;;;;;;3631932;39;20246;-74
2021/01/08 13:14:40;;;;;;;5.93;3.22;;;5.60;99.90;;;;;;3633039;39;20264;-74